Portada
METAR-TAF:

METAR-TAF

Aeroports :

Marsella, França

latitud: 43-27N, longitud: 005-14E, altitud: 6 m

Observació

L'informe es va fer fa 20 minuts, a les 05:30 UTC
Vent 3 kt del Sud/Sud-Est
Temperatura 5°C
Humitat 100%
Pressió 1030 hPa
Visibilitat: 9000 m

METAR: LFML 230530Z AUTO 15003KT 9000 NSC 05/05 Q1030 TEMPO 0800 FG VV///

Hora: 06:50 (05:50 UTC)

Pronòstic

L'informe es va fer fa 3 hores i 50 minuts, a les 02:00 UTC
Pronòstic vàlid del 23 a les 03 UTC al 24 a les 09 UTC
Vent 4 kt amb direcció variable
Visibilitat 10 km o més
sense núvols per sota de 1500 mi sense presència de cumulonimbus.
Temporalment
l' 23 a les 03 UTC al 23 a les 11 UTC
Visibilitat: 3000 m
boirina
Probabilitat 30% :
Temporalment
l' 23 a les 07 UTC al 23 a les 11 UTC
Visibilitat: 0800 m
boira
Temporalment
l' 23 a les 14 UTC al 23 a les 18 UTC
Vent 10 kt del Oest/Sud-Oest

TAF: LFML 230200Z 2303/2409 VRB04KT CAVOK TX17/2315Z TN06/2306Z TEMPO 2303/2311 3000 BR PROB30 TEMPO 2307/2311 0800 FG VV/// TEMPO 2314/2318 25010KT

Observacions i pronòstics meteorològics de més de 4000 aeroports (METAR i TAF).

Les estacions disponibles són els punts grocs i vermells al mapa.

Posi el ratolí al punt desitjat per veure el nom de l'estació.

Feu clic per veure les observacions i els pronòstics meteorològics.

Per canviar el mapa: feu clic els botons verds amb una creu de color negre per apropar; al botó verd amb un guió per allunyar la imatge; o en les fletxes verdes per a mapes adjacents.


METAR-TAF: